Time;durP1;ratioP1;P1;durP2;ratioP2;P2;SDS_P1;SDS_P2;PMS_P1;PMS_P2;Temp;Humidity;BMP_temperature;BMP_pressure;BME280_temperature;BME280_humidity;BME280_pressure;Samples;Min_cycle;Max_cycle;Signal;HPM_P1;HPM_P2
2022/11/09 00:02:04;;;;;;;;;;;;;;;29.50;26.34;101470.44;5076683;28;1214;-38
2022/11/09 00:04:29;;;;;;;;;;;;;;;29.84;25.96;101470.16;5076144;28;1179;-39
2022/11/09 00:06:54;;;;;;;;;;;;;;;29.81;25.78;101468.69;5076628;28;1151;-38
2022/11/09 00:09:20;;;;;;;;;;;;;;;29.28;26.44;101466.72;5075671;28;1131;-37
2022/11/09 00:11:45;;;;;;;;;;;;;;;29.48;26.33;101469.75;5076663;28;1163;-38
2022/11/09 00:14:14;;;;;;;;;;;;;;;29.63;26.29;101467.13;5076599;28;1100;-38
2022/11/09 00:16:39;;;;;;;;;;;;;;;29.90;25.75;101464.84;5075576;28;1906;-39
2022/11/09 00:19:05;;;;;;;;;;;;;;;29.18;26.83;101470.50;5076418;28;1250;-38
2022/11/09 00:21:30;;;;;;;;;;;;;;;29.43;26.59;101467.59;5076592;28;1151;-38
2022/11/09 00:23:55;;;;;;;;;;;;;;;29.69;26.13;101466.44;5076474;28;1143;-39
2022/11/09 00:26:21;;;;;;;;;;;;;;;29.46;26.62;101467.25;5059178;28;1183;-40
2022/11/09 00:28:46;;;;;;;;;;;;;;;29.14;26.78;101463.75;5076034;28;1335;-39
2022/11/09 00:31:13;;;;;;;;;;;;;;;29.43;26.68;101456.75;5076149;28;1151;-39
2022/11/09 00:33:38;;;;;;;;;;;;;;;29.68;25.81;101455.72;5077022;28;1120;-39
2022/11/09 00:36:08;;;;;;;;;;;;;;;29.27;26.59;101465.88;5076513;28;1898;-39
2022/11/09 00:38:34;;;;;;;;;;;;;;;29.29;26.75;101463.84;5074876;28;1123;-39
2022/11/09 00:41:00;;;;;;;;;;;;;;;29.64;26.25;101454.44;5056019;28;1171;-39
2022/11/09 00:43:25;;;;;;;;;;;;;;;29.79;25.45;101454.47;5069635;28;1159;-37
2022/11/09 00:45:50;;;;;;;;;;;;;;;29.14;26.73;101463.75;5075962;28;1220;-38
2022/11/09 00:48:16;;;;;;;;;;;;;;;29.37;26.60;101451.22;5075858;28;1140;-38
2022/11/09 00:50:41;;;;;;;;;;;;;;;29.71;26.08;101458.09;5076354;28;1147;-38
2022/11/09 00:53:06;;;;;;;;;;;;;;;29.80;25.89;101453.41;5075825;28;1223;-38
2022/11/09 00:55:31;;;;;;;;;;;;;;;29.15;26.65;101460.03;5076101;28;1454;-38
2022/11/09 00:57:57;;;;;;;;;;;;;;;29.45;26.45;101459.28;5075929;28;1902;-36
2022/11/09 01:00:22;;;;;;;;;;;;;;;29.73;26.02;101458.75;5075778;28;1223;-37
2022/11/09 01:02:51;;;;;;;;;;;;;;;29.80;25.63;101451.56;5076479;28;1132;-37
2022/11/09 01:05:16;;;;;;;;;;;;;;;29.42;26.35;101451.53;5075734;28;1111;-39
2022/11/09 01:07:41;;;;;;;;;;;;;;;29.66;26.05;101460.53;5058897;28;1135;-38
2022/11/09 01:10:07;;;;;;;;;;;;;;;29.90;25.59;101455.88;5056046;28;1283;-38
2022/11/09 01:12:32;;;;;;;;;;;;;;;29.68;25.99;101455.72;5056057;28;1143;-39
2022/11/09 01:14:57;;;;;;;;;;;;;;;29.58;26.07;101454.09;5055711;28;1064;-38
2022/11/09 01:17:23;;;;;;;;;;;;;;;29.75;25.80;101458.56;5055803;28;1967;-39
2022/11/09 01:19:48;;;;;;;;;;;;;;;29.87;25.53;101451.66;5074570;28;1194;-39
2022/11/09 01:22:14;;;;;;;;;;;;;;;29.17;26.30;101460.69;5078284;28;1218;-38
2022/11/09 01:24:39;;;;;;;;;;;;;;;29.54;26.14;101455.50;5079604;28;1257;-38
2022/11/09 01:27:04;;;;;;;;;;;;;;;29.77;25.29;101451.09;5080012;28;1131;-39
2022/11/09 01:29:29;;;;;;;;;;;;;;;29.45;26.17;101459.28;5078937;28;1218;-38
2022/11/09 01:31:55;;;;;;;;;;;;;;;29.49;26.21;101455.22;5079938;28;1139;-39
2022/11/09 01:34:20;;;;;;;;;;;;;;;29.71;26.00;101458.09;5079918;28;1155;-39
2022/11/09 01:36:48;;;;;;;;;;;;;;;29.71;25.74;101458.09;5079709;28;1905;-38
2022/11/09 01:39:13;;;;;;;;;;;;;;;29.47;26.28;101459.97;5078823;28;1123;-39
2022/11/09 01:41:39;;;;;;;;;;;;;;;29.68;25.78;101455.72;5074230;28;1124;-36
2022/11/09 01:44:08;;;;;;;;;;;;;;;29.78;25.78;101460.94;5077755;28;1179;-37
2022/11/09 01:46:36;;;;;;;;;;;;;;;29.42;26.47;101463.22;5079120;28;1179;-36
2022/11/09 01:49:02;;;;;;;;;;;;;;;29.48;26.15;101461.63;5079247;28;1178;-36
2022/11/09 01:51:32;;;;;;;;;;;;;;;29.09;26.79;101461.56;5079841;28;1178;-36
2022/11/09 01:54:00;;;;;;;;;;;;;;;29.22;26.59;101457.44;5078530;28;1207;-37
2022/11/09 01:56:25;;;;;;;;;;;;;;;29.19;26.86;101461.38;5061376;28;1995;-38
2022/11/09 01:58:53;;;;;;;;;;;;;;;29.23;26.70;101452.88;5079652;28;1104;-39
2022/11/09 02:01:18;;;;;;;;;;;;;;;29.51;25.96;101450.41;5078743;28;1119;-36
2022/11/09 02:03:45;;;;;;;;;;;;;;;29.60;26.13;101455.81;5061159;28;1132;-39
2022/11/09 02:06:11;;;;;;;;;;;;;;;29.46;26.44;101459.09;5061047;28;1222;-37
2022/11/09 02:08:37;;;;;;;;;;;;;;;29.43;26.59;101454.06;5060884;28;1199;-38
2022/11/09 02:11:09;;;;;;;;;;;;;;;29.69;26.01;101457.44;5061286;28;1159;-38
2022/11/09 02:13:36;;;;;;;;;;;;;;;29.51;26.44;101452.31;5078800;28;1194;-38
2022/11/09 02:16:01;;;;;;;;;;;;;;;29.14;26.80;101460.19;5077095;28;1976;-38
2022/11/09 02:18:26;;;;;;;;;;;;;;;29.60;26.17;101456.66;5066575;28;957;-38
2022/11/09 02:20:52;;;;;;;;;;;;;;;29.64;26.25;101460.69;5078693;28;1167;-38
2022/11/09 02:23:18;;;;;;;;;;;;;;;29.57;26.09;101454.28;5060592;28;1151;-38
2022/11/09 02:25:44;;;;;;;;;;;;;;;29.53;26.50;101453.81;5078537;28;1091;-38
2022/11/09 02:28:09;;;;;;;;;;;;;;;29.73;26.14;101456.03;5060888;28;1171;-38
2022/11/09 02:30:34;;;;;;;;;;;;;;;29.74;26.09;101460.44;5077473;28;888;-38
2022/11/09 02:33:00;;;;;;;;;;;;;;;29.14;26.51;101452.06;5059523;28;1203;-38
2022/11/09 02:35:25;;;;;;;;;;;;;;;29.51;26.42;101455.84;5078485;28;1139;-38
2022/11/09 02:37:50;;;;;;;;;;;;;;;29.80;25.80;101459.69;5078295;28;1905;-38
2022/11/09 02:40:17;;;;;;;;;;;;;;;29.64;26.21;101449.84;5078201;28;1227;-38
2022/11/09 02:42:42;;;;;;;;;;;;;;;29.48;26.46;101456.22;5059858;28;879;-38
2022/11/09 02:45:08;;;;;;;;;;;;;;;29.63;26.29;101459.00;5078241;28;1128;-38
2022/11/09 02:47:33;;;;;;;;;;;;;;;29.87;26.00;101458.94;5078220;28;1131;-38
2022/11/09 02:49:58;;;;;;;;;;;;;;;29.78;26.01;101461.75;5078708;28;1163;-37
2022/11/09 02:52:24;;;;;;;;;;;;;;;29.24;26.51;101458.09;5077452;28;1524;-38
2022/11/09 02:54:49;;;;;;;;;;;;;;;29.67;26.45;101454.91;5077884;28;920;-38
2022/11/09 02:57:14;;;;;;;;;;;;;;;29.80;25.46;101456.97;5078085;28;1963;-40
2022/11/09 02:59:39;;;;;;;;;;;;;;;29.45;26.50;101453.88;5078026;28;1123;-37
2022/11/09 03:02:05;;;;;;;;;;;;;;;29.42;26.64;101452.38;5077874;28;1198;-38
2022/11/09 03:04:30;;;;;;;;;;;;;;;29.65;26.30;101458.81;5078075;28;1167;-38
2022/11/09 03:06:55;;;;;;;;;;;;;;;29.78;25.83;101450.91;5077417;28;1092;-40
2022/11/09 03:09:21;;;;;;;;;;;;;;;29.15;27.05;101457.31;5077876;28;1187;-38
2022/11/09 03:11:46;;;;;;;;;;;;;;;29.54;26.36;101450.09;5077949;28;1147;-39
2022/11/09 03:14:11;;;;;;;;;;;;;;;29.85;25.90;101456.44;5077153;28;1290;-38
2022/11/09 03:16:37;;;;;;;;;;;;;;;29.88;25.64;101455.22;5077749;28;1974;-40
2022/11/09 03:19:02;;;;;;;;;;;;;;;29.23;26.43;101458.28;5077348;28;1144;-39
2022/11/09 03:21:27;;;;;;;;;;;;;;;29.57;26.39;101457.00;5077698;28;1166;-40
2022/11/09 03:23:53;;;;;;;;;;;;;;;29.75;25.71;101461.25;5077578;28;1143;-39
2022/11/09 03:26:18;;;;;;;;;;;;;;;29.40;26.37;101456.28;5077278;28;1139;-39
2022/11/09 03:28:44;;;;;;;;;;;;;;;29.40;26.76;101453.56;5077460;28;1210;-38
2022/11/09 03:31:09;;;;;;;;;;;;;;;29.72;26.00;101443.50;5077491;28;1186;-38
2022/11/09 03:33:34;;;;;;;;;;;;;;;29.92;25.69;101457.38;5077288;28;1155;-38
2022/11/09 03:36:00;;;;;;;;;;;;;;;29.32;26.65;101459.91;5077221;28;1898;-38
2022/11/09 03:38:25;;;;;;;;;;;;;;;29.57;26.09;101447.00;5077340;28;1127;-38
2022/11/09 03:40:50;;;;;;;;;;;;;;;29.82;26.02;101446.81;5077376;28;1206;-38
2022/11/09 03:43:16;;;;;;;;;;;;;;;29.70;25.93;101445.56;5076247;28;1238;-38
2022/11/09 03:45:41;;;;;;;;;;;;;;;29.35;26.48;101446.00;5076885;28;1131;-38
2022/11/09 03:48:06;;;;;;;;;;;;;;;29.66;26.22;101444.25;5077338;28;1168;-38
2022/11/09 03:50:32;;;;;;;;;;;;;;;29.94;25.41;101444.50;5076856;28;1159;-38
2022/11/09 03:52:57;;;;;;;;;;;;;;;29.45;26.27;101443.88;5076749;28;1238;-38
2022/11/09 03:55:23;;;;;;;;;;;;;;;29.43;26.50;101439.66;5076120;28;1143;-38
2022/11/09 03:57:48;;;;;;;;;;;;;;;29.82;25.85;101446.81;5076682;28;1979;-38
2022/11/09 04:00:15;;;;;;;;;;;;;;;29.73;25.83;101442.47;5077174;28;1155;-35
2022/11/09 04:02:40;;;;;;;;;;;;;;;29.25;26.16;101450.81;5076923;28;1238;-38
2022/11/09 04:05:05;;;;;;;;;;;;;;;29.49;26.01;101457.06;5076237;28;1123;-37
2022/11/09 04:07:31;;;;;;;;;;;;;;;29.73;25.93;101456.03;5076436;28;1135;-38
2022/11/09 04:09:56;;;;;;;;;;;;;;;29.61;26.07;101452.09;5076703;28;1210;-37
2022/11/09 04:12:21;;;;;;;;;;;;;;;29.11;26.75;101449.72;5076763;28;1225;-38
2022/11/09 04:14:47;;;;;;;;;;;;;;;29.14;27.14;101455.63;5076366;28;1183;-38
2022/11/09 04:17:12;;;;;;;;;;;;;;;28.55;27.25;101454.22;5077170;28;1921;-38
2022/11/09 04:19:37;;;;;;;;;;;;;;;28.76;26.56;101458.19;5075854;28;1171;-38
2022/11/09 04:22:02;;;;;;;;;;;;;;;27.86;27.28;101451.03;5076660;28;1215;-38
2022/11/09 04:24:28;;;;;;;;;;;;;;;26.72;28.82;101450.50;5076259;28;1119;-38
2022/11/09 04:26:53;;;;;;;;;;;;;;;26.64;28.79;101448.59;5077041;28;1151;-38
2022/11/09 04:29:18;;;;;;;;;;;;;;;26.84;28.83;101451.00;5075975;28;1182;-38
2022/11/09 04:31:44;;;;;;;;;;;;;;;26.89;28.92;101456.78;5076413;28;862;-38
2022/11/09 04:34:09;;;;;;;;;;;;;;;26.87;29.15;101456.13;5076511;28;1186;-38
2022/11/09 04:36:34;;;;;;;;;;;;;;;26.89;29.13;101451.38;5075681;28;1914;-38
2022/11/09 04:38:59;;;;;;;;;;;;;;;26.78;29.13;101454.38;5076405;28;1225;-38
2022/11/09 04:41:26;;;;;;;;;;;;;;;26.84;28.86;101458.28;5076733;28;1167;-38
2022/11/09 04:43:51;;;;;;;;;;;;;;;26.72;28.80;101457.72;5075662;28;1131;-38
2022/11/09 04:46:16;;;;;;;;;;;;;;;27.01;27.12;101462.75;5076530;28;1198;-37
2022/11/09 04:48:43;;;;;;;;;;;;;;;26.74;27.71;101471.91;5076288;28;1124;-38
2022/11/09 04:51:11;;;;;;;;;;;;;;;26.82;28.03;101473.78;5076217;28;1171;-41
2022/11/09 04:53:36;;;;;;;;;;;;;;;26.36;28.07;101467.69;5075949;28;1139;-41
2022/11/09 04:56:02;;;;;;;;;;;;;;;26.05;27.11;101476.25;5073224;28;1981;-41
2022/11/09 04:58:27;;;;;;;;;;;;;;;25.85;28.24;101471.06;5080172;28;1065;-40
2022/11/09 05:00:53;;;;;;;;;;;;;;;25.16;29.42;101477.81;5079785;28;1521;-41
2022/11/09 05:03:18;;;;;;;;;;;;;;;24.85;29.93;101480.81;5078779;28;1528;-36
2022/11/09 05:05:43;;;;;;;;;;;;;;;24.28;30.63;101482.59;5078211;28;2316;-36
2022/11/09 05:08:09;;;;;;;;;;;;;;;24.19;30.88;101486.97;5066283;28;1793;-36
2022/11/09 05:10:34;;;;;;;;;;;;;;;24.32;30.79;101485.84;5069720;28;2075;-36
2022/11/09 05:13:00;;;;;;;;;;;;;;;24.09;31.12;101483.44;5079457;28;2058;-36
2022/11/09 05:15:25;;;;;;;;;;;;;;;23.96;31.09;101489.13;5068135;28;1992;-36
2022/11/09 05:17:51;;;;;;;;;;;;;;;24.02;31.07;101490.38;5067539;28;1981;-37
2022/11/09 05:20:16;;;;;;;;;;;;;;;24.05;31.08;101492.78;5076415;28;1990;-40
2022/11/09 05:25:25;;;;;;;;;;;;;;;23.72;31.87;101493.09;5079462;28;1087;-43
2022/11/09 05:27:51;;;;;;;;;;;;;;;23.71;31.94;101494.94;5079140;28;1175;-40
2022/11/09 05:30:16;;;;;;;;;;;;;;;23.57;32.28;101506.09;5079669;28;1143;-40
2022/11/09 05:32:41;;;;;;;;;;;;;;;23.75;34.75;101506.25;5079122;28;895;-41
2022/11/09 05:35:07;;;;;;;;;;;;;;;23.42;34.35;101503.81;5079643;28;1128;-41
2022/11/09 05:37:32;;;;;;;;;;;;;;;23.49;33.66;101512.16;5078938;28;1898;-40
2022/11/09 05:39:58;;;;;;;;;;;;;;;24.04;32.54;101516.13;5079491;28;1167;-40
2022/11/09 05:42:23;;;;;;;;;;;;;;;24.45;31.53;101515.94;5078978;28;1277;-40
2022/11/09 05:44:48;;;;;;;;;;;;;;;24.65;31.23;101520.41;5079465;28;966;-39
2022/11/09 05:47:14;;;;;;;;;;;;;;;24.56;31.32;101525.66;5078962;28;1222;-40
2022/11/09 05:49:39;;;;;;;;;;;;;;;24.66;30.83;101530.16;5073367;28;2290;-39
2022/11/09 05:52:04;;;;;;;;;;;;;;;24.61;31.01;101527.91;5073847;28;1120;-41
2022/11/09 05:54:30;;;;;;;;;;;;;;;24.61;31.16;101525.22;5078800;28;1115;-40
2022/11/09 05:56:55;;;;;;;;;;;;;;;24.59;31.35;101537.97;5078381;28;1968;-40
2022/11/09 05:59:20;;;;;;;;;;;;;;;24.51;31.60;101543.22;5077216;28;1186;-40
2022/11/09 06:01:45;;;;;;;;;;;;;;;24.60;31.44;101538.81;5079006;28;1266;-40
2022/11/09 06:04:11;;;;;;;;;;;;;;;24.66;31.23;101538.22;5073454;28;1262;-34
2022/11/09 06:06:36;;;;;;;;;;;;;;;24.64;31.34;101541.06;5068549;28;1017;-35
2022/11/09 06:09:01;;;;;;;;;;;;;;;24.60;31.06;101545.06;5071308;28;890;-34
2022/11/09 06:11:27;;;;;;;;;;;;;;;24.51;31.20;101549.47;5058619;28;1175;-36
2022/11/09 06:13:53;;;;;;;;;;;;;;;24.53;31.15;101546.63;5071958;28;1072;-36
2022/11/09 06:16:18;;;;;;;;;;;;;;;24.44;31.35;101554.56;5077442;28;1914;-38
2022/11/09 06:18:43;;;;;;;;;;;;;;;24.53;31.17;101550.16;5074231;28;1254;-37
2022/11/09 06:21:09;;;;;;;;;;;;;;;24.45;31.43;101558.97;5066282;28;2608;-37
2022/11/09 06:23:34;;;;;;;;;;;;;;;24.49;31.29;101553.31;5061023;28;1159;-36
2022/11/09 06:26:05;;;;;;;;;;;;;;;24.38;31.43;101557.00;5077333;28;2659;-37
2022/11/09 06:28:30;;;;;;;;;;;;;;;24.30;31.18;101560.41;5078834;28;1158;-38
2022/11/09 06:30:56;;;;;;;;;;;;;;;24.41;30.99;101562.94;5064927;28;1088;-38
2022/11/09 06:33:21;;;;;;;;;;;;;;;24.38;31.31;101563.22;5077723;28;1144;-38
2022/11/09 06:35:46;;;;;;;;;;;;;;;24.57;31.21;101566.88;5078300;28;1206;-37
2022/11/09 06:38:12;;;;;;;;;;;;;;;24.68;30.88;101569.38;5078237;28;1898;-37
2022/11/09 06:40:38;;;;;;;;;;;;;;;24.65;30.97;101569.69;5078372;28;1167;-38
2022/11/09 06:43:03;;;;;;;;;;;;;;;24.70;31.01;101569.22;5078451;28;1206;-37
2022/11/09 06:45:28;;;;;;;;;;;;;;;24.54;31.36;101572.53;5077890;28;1012;-37
2022/11/09 06:47:57;;;;;;;;;;;;;;;24.40;31.79;101571.13;5078228;28;1123;-37
2022/11/09 06:50:22;;;;;;;;;;;;;;;24.40;31.85;101569.31;5077969;28;2454;-37
2022/11/09 06:52:48;;;;;;;;;;;;;;;24.42;31.74;101567.31;5077465;28;1119;-38
2022/11/09 06:55:13;;;;;;;;;;;;;;;24.61;31.54;101575.50;5077467;28;1186;-38
2022/11/09 06:57:38;;;;;;;;;;;;;;;24.43;32.02;101577.09;5063307;28;1973;-37
2022/11/09 07:00:04;;;;;;;;;;;;;;;24.46;31.80;101567.88;5077667;28;1123;-37
2022/11/09 07:02:29;;;;;;;;;;;;;;;24.68;31.62;101571.22;5077382;28;981;-43
2022/11/09 07:04:54;;;;;;;;;;;;;;;24.72;31.67;101583.41;5073344;28;1175;-42
2022/11/09 07:07:20;;;;;;;;;;;;;;;24.91;31.55;101585.19;5061966;28;1167;-42
2022/11/09 07:09:45;;;;;;;;;;;;;;;25.01;31.22;101584.28;5077343;28;929;-43
2022/11/09 07:12:11;;;;;;;;;;;;;;;25.01;31.40;101577.06;5077699;28;1182;-43
2022/11/09 07:14:36;;;;;;;;;;;;;;;25.10;31.16;101575.34;5077479;28;1155;-40
2022/11/09 07:17:01;;;;;;;;;;;;;;;25.16;31.05;101573.88;5077263;28;1894;-38
2022/11/09 07:19:27;;;;;;;;;;;;;;;25.24;31.00;101576.66;5062644;28;1793;-41
2022/11/09 07:21:52;;;;;;;;;;;;;;;25.27;31.17;101578.22;5077108;28;1053;-41
2022/11/09 07:24:18;;;;;;;;;;;;;;;25.39;31.20;101574.31;5076843;28;1239;-39
2022/11/09 07:26:43;;;;;;;;;;;;;;;25.38;31.09;101569.06;5076639;28;1146;-40
2022/11/09 07:29:08;;;;;;;;;;;;;;;25.37;31.22;101573.63;5077712;28;1194;-41
2022/11/09 07:31:34;;;;;;;;;;;;;;;25.41;31.32;101569.63;5075693;28;1100;-40
2022/11/09 07:34:03;;;;;;;;;;;;;;;25.47;31.14;101567.34;5066817;28;894;-40
2022/11/09 07:36:28;;;;;;;;;;;;;;;25.53;31.03;101570.25;5072742;28;1890;-40
2022/11/09 07:38:54;;;;;;;;;;;;;;;25.52;30.96;101565.91;5067502;28;1300;-40
2022/11/09 07:41:19;;;;;;;;;;;;;;;25.54;30.96;101571.94;5076622;28;1170;-40
2022/11/09 07:43:44;;;;;;;;;;;;;;;25.59;31.07;101566.09;5076680;28;1210;-40
2022/11/09 07:46:10;;;;;;;;;;;;;;;25.59;31.07;101565.28;5076541;28;913;-39
2022/11/09 07:48:35;;;;;;;;;;;;;;;25.47;31.18;101572.72;5076945;28;1143;-41
2022/11/09 07:51:01;;;;;;;;;;;;;;;25.44;31.27;101571.19;5076812;28;1856;-40
2022/11/09 07:53:26;;;;;;;;;;;;;;;25.49;31.30;101571.56;5076919;28;1163;-39
2022/11/09 07:56:01;;;;;;;;;;;;;;;25.52;31.10;101568.59;5077206;28;1147;-39
2022/11/09 07:58:26;;;;;;;;;;;;;;;25.64;30.90;101571.91;5067033;28;1902;-40
2022/11/09 08:00:51;;;;;;;;;;;;;;;25.67;31.17;101577.00;5076008;28;1441;-40
2022/11/09 08:03:17;;;;;;;;;;;;;;;25.71;30.98;101577.53;5066540;28;1119;-40
2022/11/09 08:05:42;;;;;;;;;;;;;;;25.93;30.72;101580.78;5076290;28;1103;-40
2022/11/09 08:08:09;;;;;;;;;;;;;;;25.97;30.83;101579.47;5076094;28;1138;-40
2022/11/09 08:10:34;;;;;;;;;;;;;;;25.99;30.94;101584.72;5076585;28;1143;-40
2022/11/09 08:13:04;;;;;;;;;;;;;;;25.98;30.74;101583.84;5076793;28;1209;-40
2022/11/09 08:15:29;;;;;;;;;;;;;;;25.91;30.73;101580.06;5076180;28;1096;-40
2022/11/09 08:17:57;;;;;;;;;;;;;;;25.85;31.01;101588.78;5076030;28;1979;-40
2022/11/09 08:20:22;;;;;;;;;;;;;;;25.97;30.99;101581.31;5071672;28;2335;-40
2022/11/09 08:22:48;;;;;;;;;;;;;;;25.97;30.54;101584.88;5076338;28;1156;-41
2022/11/09 08:25:13;;;;;;;;;;;;;;;25.91;30.73;101589.03;5076218;28;1194;-40
2022/11/09 08:27:41;;;;;;;;;;;;;;;25.85;30.70;101586.09;5076477;28;1151;-40
2022/11/09 08:30:09;;;;;;;;;;;;;;;25.94;30.81;101581.63;5076273;28;1084;-40
2022/11/09 08:32:34;;;;;;;;;;;;;;;25.90;30.62;101571.16;5075477;28;1139;-40
2022/11/09 08:34:59;;;;;;;;;;;;;;;25.92;30.60;101569.13;5076477;28;1183;-40
2022/11/09 08:37:25;;;;;;;;;;;;;;;25.89;30.89;101569.44;5075709;28;1893;-40
2022/11/09 08:39:50;;;;;;;;;;;;;;;25.90;30.73;101573.00;5076046;28;1222;-40
2022/11/09 08:42:15;;;;;;;;;;;;;;;25.92;30.40;101576.41;5075937;28;1202;-40
2022/11/09 08:44:41;;;;;;;;;;;;;;;25.86;30.63;101588.63;5072591;28;1132;-40
2022/11/09 08:47:06;;;;;;;;;;;;;;;25.90;30.41;101578.41;5071604;28;1144;-40
2022/11/09 08:49:31;;;;;;;;;;;;;;;25.89;30.59;101591.00;5075727;28;2359;-39
2022/11/09 08:51:56;;;;;;;;;;;;;;;26.05;30.56;101581.38;5063069;28;1144;-39
2022/11/09 08:54:22;;;;;;;;;;;;;;;25.98;30.77;101583.84;5075680;28;1132;-40
2022/11/09 08:56:47;;;;;;;;;;;;;;;25.97;30.83;101579.47;5075670;28;1901;-40
2022/11/09 08:59:13;;;;;;;;;;;;;;;25.97;30.75;101584.88;5076270;28;1206;-39
2022/11/09 09:01:38;;;;;;;;;;;;;;;25.94;30.94;101587.03;5075956;28;1099;-40
2022/11/09 09:04:03;;;;;;;;;;;;;;;25.96;30.64;101585.84;5076092;28;1222;-39
2022/11/09 09:06:28;;;;;;;;;;;;;;;25.92;30.90;101584.50;5076039;28;1096;-39
2022/11/09 09:08:54;;;;;;;;;;;;;;;26.02;30.92;101587.09;5075798;28;1167;-39
2022/11/09 09:11:19;;;;;;;;;;;;;;;26.03;30.88;101589.63;5075587;28;1179;-40
2022/11/09 09:13:44;;;;;;;;;;;;;;;26.01;30.88;101588.94;5075680;28;1182;-40
2022/11/09 09:16:10;;;;;;;;;;;;;;;26.05;30.64;101581.38;5075944;28;1112;-37
2022/11/09 09:18:36;;;;;;;;;;;;;;;26.07;30.92;101584.78;5075951;28;1112;-38
2022/11/09 09:21:04;;;;;;;;;;;;;;;26.04;30.64;101582.41;5075563;28;2512;-38
2022/11/09 09:23:29;;;;;;;;;;;;;;;26.12;30.77;101581.63;5075540;28;1190;-40
2022/11/09 09:25:56;;;;;;;;;;;;;;;26.14;30.64;101579.63;5082997;28;1119;-40
2022/11/09 09:28:21;;;;;;;;;;;;;;;26.08;30.71;101575.69;5076179;28;1171;-39
2022/11/09 09:30:46;;;;;;;;;;;;;;;26.14;30.57;101577.75;5075444;28;1131;-39
2022/11/09 09:33:11;;;;;;;;;;;;;;;26.17;30.81;101579.31;5075784;28;1143;-39
2022/11/09 09:35:37;;;;;;;;;;;;;;;26.14;30.67;101571.53;5074849;28;1180;-40
2022/11/09 09:38:02;;;;;;;;;;;;;;;26.07;30.77;101568.59;5061549;28;1905;-42
2022/11/09 09:40:29;;;;;;;;;;;;;;;26.13;30.78;101567.97;5075461;28;1116;-40
2022/11/09 09:42:54;;;;;;;;;;;;;;;26.07;30.95;101571.31;5059839;28;1218;-40
2022/11/09 09:45:24;;;;;;;;;;;;;;;26.13;30.61;101564.41;5078614;28;1088;-40
2022/11/09 09:47:58;;;;;;;;;;;;;;;26.14;30.85;101568.84;5079383;28;1111;-40
2022/11/09 09:50:24;;;;;;;;;;;;;;;26.21;30.87;101564.50;5079103;28;2280;-40
2022/11/09 09:52:50;;;;;;;;;;;;;;;26.16;30.94;101558.72;5059802;28;1290;-38
2022/11/09 09:55:15;;;;;;;;;;;;;;;26.20;30.56;101557.41;5076847;28;1061;-41
2022/11/09 09:57:40;;;;;;;;;;;;;;;25.77;30.58;101555.38;5078795;28;1975;-38
2022/11/09 10:00:06;;;;;;;;;;;;;;;25.39;31.57;101550.06;5079000;28;1124;-39
2022/11/09 10:02:35;;;;;;;;;;;;;;;25.27;32.17;101551.31;5079323;28;1162;-40
2022/11/09 10:05:01;;;;;;;;;;;;;;;25.21;32.18;101549.22;5060989;28;1116;-37
2022/11/09 10:07:33;;;;;;;;;;;;;;;25.21;32.37;101550.03;5060925;28;1242;-38
2022/11/09 10:10:28;;;;;;;;;;;;;;;25.15;32.55;101547.97;5060653;28;1521;-39
2022/11/09 10:12:57;;;;;;;;;;;;;;;24.97;32.75;101547.91;5006709;28;1222;-39
2022/11/09 10:15:41;;;;;;;;;;;;;;;24.89;32.89;101546.78;5060648;28;1123;-39
2022/11/09 10:18:45;;;;;;;;;;;;;;;24.96;32.75;101540.84;5078697;28;1898;-42
2022/11/09 10:21:25;;;;;;;;;;;;;;;24.88;32.92;101538.84;4990686;28;2602;-40
2022/11/09 10:24:01;;;;;;;;;;;;;;;24.84;33.12;101538.28;4996961;28;1247;-40
2022/11/09 10:26:33;;;;;;;;;;;;;;;24.69;33.46;101538.78;5026170;28;1046;-38
2022/11/09 10:28:59;;;;;;;;;;;;;;;24.65;33.47;101540.09;5078577;28;1116;-38
2022/11/09 10:31:24;;;;;;;;;;;;;;;24.60;33.80;101528.91;5060039;28;1132;-40
2022/11/09 10:33:54;;;;;;;;;;;;;;;24.38;34.06;101530.94;5060198;28;1121;-38
2022/11/09 10:36:22;;;;;;;;;;;;;;;24.30;34.42;101530.84;5060137;28;1969;-38
2022/11/09 10:38:48;;;;;;;;;;;;;;;24.18;34.64;101520.25;5077676;28;1171;-39
2022/11/09 10:41:33;;;;;;;;;;;;;;;24.07;34.99;101523.88;5058505;28;1095;-38
2022/11/09 10:43:58;;;;;;;;;;;;;;;24.20;34.82;101523.66;5055328;28;1215;-40
2022/11/09 10:46:24;;;;;;;;;;;;;;;23.91;35.25;101520.94;5078013;28;896;-39
2022/11/09 10:48:49;;;;;;;;;;;;;;;23.76;35.56;101521.38;5077344;28;1163;-39
2022/11/09 10:51:29;;;;;;;;;;;;;;;23.81;35.25;101513.75;5060180;28;2099;-38
2022/11/09 10:54:12;;;;;;;;;;;;;;;24.00;34.91;101517.41;5077163;28;1191;-42
2022/11/09 10:56:42;;;;;;;;;;;;;;;23.96;34.87;101511.47;5078275;28;1901;-40
2022/11/09 10:59:30;;;;;;;;;;;;;;;24.05;35.02;101517.84;5077420;28;1099;-40
2022/11/09 11:01:55;;;;;;;;;;;;;;;23.84;35.15;101510.75;5059716;28;1187;-41
2022/11/09 11:04:24;;;;;;;;;;;;;;;23.36;36.02;101515.09;5077771;28;1127;-41
2022/11/09 11:06:49;;;;;;;;;;;;;;;23.55;35.48;101514.31;5078216;28;1107;-40
2022/11/09 11:09:15;;;;;;;;;;;;;;;23.49;35.62;101517.53;5077532;28;1124;-41
2022/11/09 11:11:40;;;;;;;;;;;;;;;23.41;35.84;101506.63;5077353;28;1036;-38
2022/11/09 11:14:09;;;;;;;;;;;;;;;23.72;35.29;101503.84;5077383;28;1223;-40
2022/11/09 11:16:34;;;;;;;;;;;;;;;23.75;35.15;101508.09;5077130;28;1973;-39
2022/11/09 11:18:59;;;;;;;;;;;;;;;23.33;35.72;101501.94;5059375;28;2422;-40
2022/11/09 11:21:25;;;;;;;;;;;;;;;23.21;36.02;101499.38;5059330;28;1143;-43
2022/11/09 11:24:02;;;;;;;;;;;;;;;23.56;35.35;101504.41;5067458;28;921;-43
2022/11/09 11:26:34;;;;;;;;;;;;;;;23.72;34.99;101499.31;5077152;28;1187;-40
2022/11/09 11:29:00;;;;;;;;;;;;;;;23.66;34.81;101496.34;5059823;28;1198;-42
2022/11/09 11:31:25;;;;;;;;;;;;;;;23.46;35.13;101501.69;5076902;28;1183;-46
2022/11/09 11:33:51;;;;;;;;;;;;;;;23.11;35.77;101495.81;5076850;28;1190;-46
2022/11/09 11:36:25;;;;;;;;;;;;;;;23.24;35.57;101496.41;5077089;28;1902;-47
2022/11/09 11:38:55;;;;;;;;;;;;;;;23.17;35.71;101497.13;5077126;28;1155;-46
2022/11/09 11:41:55;;;;;;;;;;;;;;;23.58;35.00;101497.91;5077493;28;1092;-47
2022/11/09 11:44:26;;;;;;;;;;;;;;;23.21;35.62;101495.84;4995008;28;1213;-48
2022/11/09 11:47:00;;;;;;;;;;;;;;;22.89;36.31;101499.59;5059554;28;1197;-46
2022/11/09 11:49:44;;;;;;;;;;;;;;;23.27;35.70;101506.06;5063927;28;2366;-46
2022/11/09 11:52:12;;;;;;;;;;;;;;;23.38;35.36;101506.88;5076515;28;1139;-43
2022/11/09 11:54:37;;;;;;;;;;;;;;;23.36;35.27;101507.03;5076744;28;1119;-43
2022/11/09 11:57:38;;;;;;;;;;;;;;;23.17;35.42;101508.69;5076502;28;1894;-48
2022/11/09 12:00:14;;;;;;;;;;;;;;;23.59;34.69;101504.97;5004828;28;975;-44
2022/11/09 12:02:39;;;;;;;;;;;;;;;23.42;35.06;101502.97;5054027;28;1093;-43
2022/11/09 12:05:23;;;;;;;;;;;;;;;23.63;34.97;101508.22;5076508;28;1198;-41
2022/11/09 12:07:48;;;;;;;;;;;;;;;24.01;34.24;101502.97;5076323;28;1171;-40
2022/11/09 12:10:14;;;;;;;;;;;;;;;24.25;33.78;101507.06;5075961;28;1093;-44
2022/11/09 12:12:42;;;;;;;;;;;;;;;24.32;33.56;101499.28;5076527;28;1151;-42
2022/11/09 12:15:13;;;;;;;;;;;;;;;24.19;33.64;101503.09;5068076;28;1410;-45
2022/11/09 12:17:42;;;;;;;;;;;;;;;24.17;33.61;101504.25;5067479;28;1922;-42
2022/11/09 12:20:15;;;;;;;;;;;;;;;24.21;33.44;101498.44;5075276;28;2513;-44
2022/11/09 12:22:40;;;;;;;;;;;;;;;24.34;33.16;101500.81;5072119;28;1003;-39
2022/11/09 12:25:10;;;;;;;;;;;;;;;24.75;32.38;101502.38;5067152;28;1449;-42
2022/11/09 12:27:49;;;;;;;;;;;;;;;24.70;32.47;101501.97;5053579;28;1239;-41
2022/11/09 12:30:20;;;;;;;;;;;;;;;24.54;32.55;101503.44;5054023;28;1088;-41
2022/11/09 12:33:05;;;;;;;;;;;;;;;24.61;32.62;101502.88;5058206;28;1226;-40
2022/11/09 12:35:31;;;;;;;;;;;;;;;24.64;32.35;101502.56;5057748;28;1483;-41
2022/11/09 12:38:02;;;;;;;;;;;;;;;24.75;32.38;101502.38;5072209;28;1898;-41
2022/11/09 12:40:29;;;;;;;;;;;;;;;24.75;32.23;101510.44;5075131;28;1370;-42
2022/11/09 12:43:02;;;;;;;;;;;;;;;24.54;32.58;101511.50;5075497;28;1310;-41
2022/11/09 12:45:34;;;;;;;;;;;;;;;24.64;32.37;101502.56;5054017;28;1247;-41
2022/11/09 12:48:00;;;;;;;;;;;;;;;24.59;32.52;101502.97;5057013;28;1379;-43
2022/11/09 12:50:26;;;;;;;;;;;;;;;24.54;32.46;101508.81;5076069;28;2224;-44